KGGG/GGG METAR and TAF weather

Enter ICAO airport designator
Station Type Date Time Source
KGGG METAR 2021/04/18 01:53 UTC NOAA

KGGG 180153Z 34005KT 10SM BKN039 12/07 A3007 RMK AO2 SLP182 T01170072


Station Type Date Time Source
KGGG Decoded METAR 2021/04/18 01:53 UTC NOAA

LONGVIEW GREGG COUNTY AIRPORT , TX, United States (KGGG) 32-23N 094-43W 107M
Apr 17, 2021 - 09:53 PM EDT / 2021.04.18 0153 UTC
Wind: from the NNW (340 degrees) at 6 MPH (5 KT):0
Visibility: 10 mile(s):0
Sky conditions: mostly cloudy
Temperature: 53.1 F (11.7 C)
Dew Point: 45.0 F (7.2 C)
Relative Humidity: 73%
Pressure (altimeter): 30.07 in. Hg (1018 hPa)
ob: KGGG 180153Z 34005KT 10SM BKN039 12/07 A3007 RMK AO2 SLP182 T01170072
cycle: 2

Station Type Date Time Source
KGGG TAF 2021/04/17 18:21 UTC NOAA

TAF KGGG 171720Z 1718/1818 34011KT P6SM OVC022
TEMPO 1718/1719 OVC019
FM172130 34011KT P6SM FEW030 BKN050
FM180200 34005KT P6SM FEW040 BKN180
FM181500 35009KT P6SM BKN200

Example: see airport list